sensor_id;sensor_type;location;lat;lon;timestamp;P1;durP1;ratioP1;P2;durP2;ratioP2
21539;SDS011;10931;52.164;5.518;2024-02-16T00:02:21;11.75;;;5.03;;
21539;SDS011;10931;52.164;5.518;2024-02-16T00:05:14;6.82;;;4.38;;
21539;SDS011;10931;52.164;5.518;2024-02-16T00:07:40;7.13;;;4.50;;
21539;SDS011;10931;52.164;5.518;2024-02-16T00:10:11;7.15;;;4.55;;
21539;SDS011;10931;52.164;5.518;2024-02-16T00:12:42;9.63;;;4.00;;
21539;SDS011;10931;52.164;5.518;2024-02-16T00:15:10;9.55;;;4.97;;
21539;SDS011;10931;52.164;5.518;2024-02-16T00:17:40;10.05;;;4.53;;
21539;SDS011;10931;52.164;5.518;2024-02-16T00:22:47;12.95;;;4.90;;
21539;SDS011;10931;52.164;5.518;2024-02-16T00:25:16;6.35;;;3.83;;
21539;SDS011;10931;52.164;5.518;2024-02-16T00:27:51;7.88;;;4.53;;
21539;SDS011;10931;52.164;5.518;2024-02-16T00:30:23;11.27;;;4.70;;
21539;SDS011;10931;52.164;5.518;2024-02-16T00:32:49;7.20;;;4.40;;
21539;SDS011;10931;52.164;5.518;2024-02-16T00:35:24;13.70;;;4.38;;
21539;SDS011;10931;52.164;5.518;2024-02-16T00:37:50;12.70;;;4.45;;
21539;SDS011;10931;52.164;5.518;2024-02-16T00:40:21;7.70;;;4.35;;
21539;SDS011;10931;52.164;5.518;2024-02-16T00:42:50;11.25;;;4.25;;
21539;SDS011;10931;52.164;5.518;2024-02-16T00:45:16;7.55;;;4.53;;
21539;SDS011;10931;52.164;5.518;2024-02-16T00:47:42;7.93;;;4.47;;
21539;SDS011;10931;52.164;5.518;2024-02-16T00:50:16;9.18;;;4.65;;
21539;SDS011;10931;52.164;5.518;2024-02-16T00:52:42;8.68;;;4.15;;
21539;SDS011;10931;52.164;5.518;2024-02-16T00:55:22;8.85;;;4.32;;
21539;SDS011;10931;52.164;5.518;2024-02-16T00:57:47;10.65;;;4.93;;
21539;SDS011;10931;52.164;5.518;2024-02-16T01:00:34;7.18;;;4.25;;
21539;SDS011;10931;52.164;5.518;2024-02-16T01:03:08;11.40;;;4.70;;
21539;SDS011;10931;52.164;5.518;2024-02-16T01:05:40;9.07;;;4.60;;
21539;SDS011;10931;52.164;5.518;2024-02-16T01:10:52;8.52;;;4.28;;
21539;SDS011;10931;52.164;5.518;2024-02-16T01:13:21;8.27;;;4.68;;
21539;SDS011;10931;52.164;5.518;2024-02-16T01:19:17;7.80;;;4.28;;
21539;SDS011;10931;52.164;5.518;2024-02-16T01:21:43;8.10;;;4.80;;
21539;SDS011;10931;52.164;5.518;2024-02-16T01:24:19;11.65;;;4.10;;
21539;SDS011;10931;52.164;5.518;2024-02-16T01:26:53;6.93;;;4.40;;
21539;SDS011;10931;52.164;5.518;2024-02-16T01:29:23;7.63;;;4.97;;
21539;SDS011;10931;52.164;5.518;2024-02-16T01:32:01;7.10;;;4.25;;
21539;SDS011;10931;52.164;5.518;2024-02-16T01:34:33;13.38;;;4.38;;
21539;SDS011;10931;52.164;5.518;2024-02-16T01:37:02;6.63;;;4.13;;
21539;SDS011;10931;52.164;5.518;2024-02-16T01:39:36;16.92;;;4.72;;
21539;SDS011;10931;52.164;5.518;2024-02-16T01:42:05;10.18;;;5.13;;
21539;SDS011;10931;52.164;5.518;2024-02-16T01:44:34;10.98;;;4.60;;
21539;SDS011;10931;52.164;5.518;2024-02-16T01:47:03;8.65;;;4.30;;
21539;SDS011;10931;52.164;5.518;2024-02-16T01:49:36;8.60;;;4.47;;
21539;SDS011;10931;52.164;5.518;2024-02-16T01:52:05;11.73;;;4.97;;
21539;SDS011;10931;52.164;5.518;2024-02-16T01:54:34;7.47;;;4.68;;
21539;SDS011;10931;52.164;5.518;2024-02-16T01:57:06;10.95;;;4.68;;
21539;SDS011;10931;52.164;5.518;2024-02-16T01:59:43;11.20;;;5.38;;
21539;SDS011;10931;52.164;5.518;2024-02-16T02:02:10;10.15;;;4.70;;
21539;SDS011;10931;52.164;5.518;2024-02-16T02:04:52;7.07;;;4.35;;
21539;SDS011;10931;52.164;5.518;2024-02-16T02:07:35;8.70;;;4.63;;
21539;SDS011;10931;52.164;5.518;2024-02-16T02:10:01;7.57;;;4.47;;
21539;SDS011;10931;52.164;5.518;2024-02-16T02:12:30;14.93;;;5.95;;
21539;SDS011;10931;52.164;5.518;2024-02-16T02:14:59;9.57;;;4.93;;
21539;SDS011;10931;52.164;5.518;2024-02-16T02:17:41;10.60;;;5.28;;
21539;SDS011;10931;52.164;5.518;2024-02-16T02:20:16;12.43;;;4.90;;
21539;SDS011;10931;52.164;5.518;2024-02-16T02:22:53;9.35;;;4.60;;
21539;SDS011;10931;52.164;5.518;2024-02-16T02:25:31;8.90;;;4.85;;
21539;SDS011;10931;52.164;5.518;2024-02-16T02:28:00;6.75;;;5.22;;
21539;SDS011;10931;52.164;5.518;2024-02-16T02:30:30;9.38;;;5.07;;
21539;SDS011;10931;52.164;5.518;2024-02-16T02:33:11;10.57;;;4.75;;
21539;SDS011;10931;52.164;5.518;2024-02-16T02:35:42;8.73;;;4.35;;
21539;SDS011;10931;52.164;5.518;2024-02-16T02:38:11;10.75;;;4.90;;
21539;SDS011;10931;52.164;5.518;2024-02-16T02:40:45;6.97;;;4.75;;
21539;SDS011;10931;52.164;5.518;2024-02-16T02:43:14;8.00;;;4.30;;
21539;SDS011;10931;52.164;5.518;2024-02-16T02:45:53;7.78;;;4.82;;
21539;SDS011;10931;52.164;5.518;2024-02-16T02:48:26;10.63;;;5.10;;
21539;SDS011;10931;52.164;5.518;2024-02-16T02:51:03;8.45;;;4.97;;
21539;SDS011;10931;52.164;5.518;2024-02-16T02:53:47;7.10;;;4.38;;
21539;SDS011;10931;52.164;5.518;2024-02-16T02:56:15;10.43;;;4.88;;
21539;SDS011;10931;52.164;5.518;2024-02-16T02:58:54;8.85;;;4.90;;
21539;SDS011;10931;52.164;5.518;2024-02-16T03:01:23;12.68;;;4.68;;
21539;SDS011;10931;52.164;5.518;2024-02-16T03:03:54;7.78;;;4.10;;
21539;SDS011;10931;52.164;5.518;2024-02-16T03:06:23;9.23;;;4.70;;
21539;SDS011;10931;52.164;5.518;2024-02-16T03:08:51;7.72;;;4.32;;
21539;SDS011;10931;52.164;5.518;2024-02-16T03:11:24;7.78;;;4.15;;
21539;SDS011;10931;52.164;5.518;2024-02-16T03:13:50;9.93;;;4.85;;
21539;SDS011;10931;52.164;5.518;2024-02-16T03:16:22;6.95;;;4.15;;
21539;SDS011;10931;52.164;5.518;2024-02-16T03:18:55;10.02;;;4.75;;
21539;SDS011;10931;52.164;5.518;2024-02-16T03:21:24;6.78;;;4.15;;
21539;SDS011;10931;52.164;5.518;2024-02-16T03:24:14;8.13;;;4.38;;
21539;SDS011;10931;52.164;5.518;2024-02-16T03:26:39;8.98;;;4.25;;
21539;SDS011;10931;52.164;5.518;2024-02-16T03:29:05;14.93;;;4.65;;
21539;SDS011;10931;52.164;5.518;2024-02-16T03:31:31;5.95;;;3.92;;
21539;SDS011;10931;52.164;5.518;2024-02-16T03:33:58;10.85;;;4.60;;
21539;SDS011;10931;52.164;5.518;2024-02-16T03:36:27;10.88;;;4.35;;
21539;SDS011;10931;52.164;5.518;2024-02-16T03:39:02;6.18;;;3.90;;
21539;SDS011;10931;52.164;5.518;2024-02-16T03:41:28;7.65;;;4.43;;
21539;SDS011;10931;52.164;5.518;2024-02-16T03:43:54;7.25;;;4.03;;
21539;SDS011;10931;52.164;5.518;2024-02-16T03:46:25;5.28;;;4.15;;
21539;SDS011;10931;52.164;5.518;2024-02-16T03:49:02;8.00;;;4.22;;
21539;SDS011;10931;52.164;5.518;2024-02-16T03:51:30;10.93;;;4.43;;
21539;SDS011;10931;52.164;5.518;2024-02-16T03:53:56;9.32;;;4.70;;
21539;SDS011;10931;52.164;5.518;2024-02-16T03:56:25;7.15;;;4.38;;
21539;SDS011;10931;52.164;5.518;2024-02-16T03:58:54;10.57;;;4.20;;
21539;SDS011;10931;52.164;5.518;2024-02-16T04:01:23;9.10;;;4.35;;
21539;SDS011;10931;52.164;5.518;2024-02-16T04:03:49;9.40;;;4.47;;
21539;SDS011;10931;52.164;5.518;2024-02-16T04:06:18;8.57;;;4.45;;
21539;SDS011;10931;52.164;5.518;2024-02-16T04:08:49;6.45;;;4.18;;
21539;SDS011;10931;52.164;5.518;2024-02-16T04:11:17;8.32;;;3.88;;
21539;SDS011;10931;52.164;5.518;2024-02-16T04:13:51;7.03;;;3.80;;
21539;SDS011;10931;52.164;5.518;2024-02-16T04:16:17;10.73;;;4.90;;
21539;SDS011;10931;52.164;5.518;2024-02-16T04:18:46;10.43;;;4.55;;
21539;SDS011;10931;52.164;5.518;2024-02-16T04:21:12;15.00;;;4.45;;
21539;SDS011;10931;52.164;5.518;2024-02-16T04:23:38;9.55;;;4.68;;
21539;SDS011;10931;52.164;5.518;2024-02-16T04:26:06;7.57;;;4.47;;
21539;SDS011;10931;52.164;5.518;2024-02-16T04:28:44;9.35;;;4.85;;
21539;SDS011;10931;52.164;5.518;2024-02-16T04:31:12;9.25;;;4.80;;
21539;SDS011;10931;52.164;5.518;2024-02-16T04:33:40;7.20;;;4.30;;
21539;SDS011;10931;52.164;5.518;2024-02-16T04:36:07;8.52;;;4.90;;
21539;SDS011;10931;52.164;5.518;2024-02-16T04:41:24;8.55;;;4.10;;
21539;SDS011;10931;52.164;5.518;2024-02-16T04:43:53;6.43;;;4.30;;
21539;SDS011;10931;52.164;5.518;2024-02-16T04:46:24;7.35;;;3.80;;
21539;SDS011;10931;52.164;5.518;2024-02-16T04:48:55;8.73;;;4.18;;
21539;SDS011;10931;52.164;5.518;2024-02-16T04:51:25;6.35;;;3.85;;
21539;SDS011;10931;52.164;5.518;2024-02-16T04:53:53;7.70;;;4.07;;
21539;SDS011;10931;52.164;5.518;2024-02-16T04:56:19;6.20;;;4.13;;
21539;SDS011;10931;52.164;5.518;2024-02-16T04:59:03;7.40;;;4.35;;
21539;SDS011;10931;52.164;5.518;2024-02-16T05:01:32;7.72;;;4.32;;
21539;SDS011;10931;52.164;5.518;2024-02-16T05:03:59;8.60;;;4.80;;
21539;SDS011;10931;52.164;5.518;2024-02-16T05:06:29;9.15;;;4.38;;
21539;SDS011;10931;52.164;5.518;2024-02-16T05:08:57;10.95;;;4.10;;
21539;SDS011;10931;52.164;5.518;2024-02-16T05:11:24;10.65;;;4.30;;
21539;SDS011;10931;52.164;5.518;2024-02-16T05:13:52;10.98;;;4.43;;
21539;SDS011;10931;52.164;5.518;2024-02-16T05:16:21;7.35;;;4.68;;
21539;SDS011;10931;52.164;5.518;2024-02-16T05:18:50;14.98;;;4.60;;
21539;SDS011;10931;52.164;5.518;2024-02-16T05:21:30;6.55;;;4.03;;
21539;SDS011;10931;52.164;5.518;2024-02-16T05:23:57;7.50;;;4.40;;
21539;SDS011;10931;52.164;5.518;2024-02-16T05:26:36;14.48;;;4.80;;
21539;SDS011;10931;52.164;5.518;2024-02-16T05:29:05;9.05;;;4.10;;
21539;SDS011;10931;52.164;5.518;2024-02-16T05:31:34;7.85;;;3.60;;
21539;SDS011;10931;52.164;5.518;2024-02-16T05:34:03;6.72;;;4.13;;
21539;SDS011;10931;52.164;5.518;2024-02-16T05:36:31;7.45;;;4.13;;
21539;SDS011;10931;52.164;5.518;2024-02-16T05:39:01;9.50;;;4.15;;
21539;SDS011;10931;52.164;5.518;2024-02-16T05:41:44;8.07;;;3.80;;
21539;SDS011;10931;52.164;5.518;2024-02-16T05:44:16;6.65;;;3.95;;
21539;SDS011;10931;52.164;5.518;2024-02-16T05:46:45;12.20;;;4.07;;
21539;SDS011;10931;52.164;5.518;2024-02-16T05:49:11;6.18;;;4.10;;
21539;SDS011;10931;52.164;5.518;2024-02-16T05:51:45;9.20;;;4.05;;
21539;SDS011;10931;52.164;5.518;2024-02-16T05:54:30;8.45;;;3.33;;
21539;SDS011;10931;52.164;5.518;2024-02-16T05:57:00;9.57;;;3.78;;
21539;SDS011;10931;52.164;5.518;2024-02-16T05:59:28;11.18;;;3.97;;
21539;SDS011;10931;52.164;5.518;2024-02-16T06:01:54;7.90;;;3.97;;
21539;SDS011;10931;52.164;5.518;2024-02-16T06:04:23;6.72;;;3.30;;
21539;SDS011;10931;52.164;5.518;2024-02-16T06:06:48;6.15;;;4.00;;
21539;SDS011;10931;52.164;5.518;2024-02-16T06:09:14;6.95;;;3.53;;
21539;SDS011;10931;52.164;5.518;2024-02-16T06:11:43;6.35;;;3.92;;
21539;SDS011;10931;52.164;5.518;2024-02-16T06:14:09;7.72;;;3.72;;
21539;SDS011;10931;52.164;5.518;2024-02-16T06:16:38;9.10;;;4.07;;
21539;SDS011;10931;52.164;5.518;2024-02-16T06:19:06;6.60;;;4.20;;
21539;SDS011;10931;52.164;5.518;2024-02-16T06:21:36;9.02;;;3.70;;
21539;SDS011;10931;52.164;5.518;2024-02-16T06:24:08;6.82;;;3.85;;
21539;SDS011;10931;52.164;5.518;2024-02-16T06:26:41;7.70;;;3.60;;
21539;SDS011;10931;52.164;5.518;2024-02-16T06:29:12;5.22;;;3.58;;
21539;SDS011;10931;52.164;5.518;2024-02-16T06:31:41;8.45;;;4.20;;
21539;SDS011;10931;52.164;5.518;2024-02-16T06:34:09;5.47;;;3.30;;
21539;SDS011;10931;52.164;5.518;2024-02-16T06:36:37;9.38;;;3.97;;
21539;SDS011;10931;52.164;5.518;2024-02-16T06:39:06;7.97;;;3.65;;
21539;SDS011;10931;52.164;5.518;2024-02-16T06:41:42;6.63;;;3.58;;
21539;SDS011;10931;52.164;5.518;2024-02-16T06:44:13;6.35;;;4.25;;
21539;SDS011;10931;52.164;5.518;2024-02-16T06:46:39;6.05;;;3.20;;
21539;SDS011;10931;52.164;5.518;2024-02-16T06:49:26;8.50;;;4.20;;
21539;SDS011;10931;52.164;5.518;2024-02-16T06:51:55;6.03;;;3.58;;
21539;SDS011;10931;52.164;5.518;2024-02-16T06:54:24;8.35;;;3.80;;
21539;SDS011;10931;52.164;5.518;2024-02-16T06:57:12;8.00;;;3.72;;
21539;SDS011;10931;52.164;5.518;2024-02-16T06:59:47;7.32;;;3.75;;
21539;SDS011;10931;52.164;5.518;2024-02-16T07:02:13;11.90;;;4.25;;
21539;SDS011;10931;52.164;5.518;2024-02-16T07:04:47;8.90;;;4.07;;
21539;SDS011;10931;52.164;5.518;2024-02-16T07:07:15;10.02;;;4.30;;
21539;SDS011;10931;52.164;5.518;2024-02-16T07:09:41;11.07;;;4.30;;
21539;SDS011;10931;52.164;5.518;2024-02-16T07:12:07;11.70;;;4.15;;
21539;SDS011;10931;52.164;5.518;2024-02-16T07:14:33;8.43;;;3.92;;
21539;SDS011;10931;52.164;5.518;2024-02-16T07:17:02;9.93;;;4.07;;
21539;SDS011;10931;52.164;5.518;2024-02-16T07:19:28;10.25;;;4.05;;
21539;SDS011;10931;52.164;5.518;2024-02-16T07:21:54;9.40;;;4.03;;
21539;SDS011;10931;52.164;5.518;2024-02-16T07:24:20;9.32;;;4.28;;
21539;SDS011;10931;52.164;5.518;2024-02-16T07:26:56;10.50;;;4.18;;
21539;SDS011;10931;52.164;5.518;2024-02-16T07:29:27;10.25;;;3.97;;
21539;SDS011;10931;52.164;5.518;2024-02-16T07:31:53;7.72;;;4.00;;
21539;SDS011;10931;52.164;5.518;2024-02-16T07:34:24;6.35;;;3.75;;
21539;SDS011;10931;52.164;5.518;2024-02-16T07:36:50;5.20;;;3.75;;
21539;SDS011;10931;52.164;5.518;2024-02-16T07:39:22;7.22;;;3.70;;
21539;SDS011;10931;52.164;5.518;2024-02-16T07:41:56;10.02;;;4.35;;
21539;SDS011;10931;52.164;5.518;2024-02-16T07:44:33;8.98;;;3.90;;
21539;SDS011;10931;52.164;5.518;2024-02-16T07:47:12;7.68;;;4.28;;
21539;SDS011;10931;52.164;5.518;2024-02-16T07:49:41;7.25;;;4.10;;
21539;SDS011;10931;52.164;5.518;2024-02-16T07:52:13;10.93;;;4.60;;
21539;SDS011;10931;52.164;5.518;2024-02-16T07:54:50;8.85;;;3.92;;
21539;SDS011;10931;52.164;5.518;2024-02-16T07:57:19;8.02;;;3.95;;
21539;SDS011;10931;52.164;5.518;2024-02-16T07:59:47;8.07;;;4.28;;
21539;SDS011;10931;52.164;5.518;2024-02-16T08:02:13;11.73;;;4.53;;
21539;SDS011;10931;52.164;5.518;2024-02-16T08:04:41;9.05;;;4.40;;
21539;SDS011;10931;52.164;5.518;2024-02-16T08:07:16;7.22;;;4.60;;
21539;SDS011;10931;52.164;5.518;2024-02-16T08:09:48;8.10;;;3.85;;
21539;SDS011;10931;52.164;5.518;2024-02-16T08:12:14;10.00;;;4.65;;
21539;SDS011;10931;52.164;5.518;2024-02-16T08:14:41;9.75;;;4.55;;
21539;SDS011;10931;52.164;5.518;2024-02-16T08:17:07;8.23;;;5.05;;
21539;SDS011;10931;52.164;5.518;2024-02-16T08:19:34;10.00;;;4.85;;
21539;SDS011;10931;52.164;5.518;2024-02-16T08:22:09;9.82;;;4.85;;
21539;SDS011;10931;52.164;5.518;2024-02-16T08:24:35;7.55;;;4.55;;
21539;SDS011;10931;52.164;5.518;2024-02-16T08:27:03;13.32;;;5.13;;
21539;SDS011;10931;52.164;5.518;2024-02-16T08:29:31;11.38;;;4.95;;
21539;SDS011;10931;52.164;5.518;2024-02-16T08:31:57;10.48;;;4.80;;
21539;SDS011;10931;52.164;5.518;2024-02-16T08:34:28;10.55;;;5.15;;
21539;SDS011;10931;52.164;5.518;2024-02-16T08:36:57;11.68;;;4.95;;
21539;SDS011;10931;52.164;5.518;2024-02-16T08:39:38;9.57;;;5.30;;
21539;SDS011;10931;52.164;5.518;2024-02-16T08:42:15;9.60;;;5.03;;
21539;SDS011;10931;52.164;5.518;2024-02-16T08:44:42;11.00;;;5.28;;
21539;SDS011;10931;52.164;5.518;2024-02-16T08:47:08;9.00;;;4.90;;
21539;SDS011;10931;52.164;5.518;2024-02-16T08:49:34;10.23;;;4.88;;
21539;SDS011;10931;52.164;5.518;2024-02-16T08:52:03;10.57;;;5.15;;
21539;SDS011;10931;52.164;5.518;2024-02-16T08:54:32;13.32;;;5.32;;
21539;SDS011;10931;52.164;5.518;2024-02-16T08:56:58;9.20;;;4.93;;
21539;SDS011;10931;52.164;5.518;2024-02-16T08:59:26;10.02;;;5.57;;
21539;SDS011;10931;52.164;5.518;2024-02-16T09:01:59;17.48;;;5.75;;
21539;SDS011;10931;52.164;5.518;2024-02-16T09:04:28;10.18;;;5.22;;
21539;SDS011;10931;52.164;5.518;2024-02-16T09:06:54;10.25;;;5.82;;
21539;SDS011;10931;52.164;5.518;2024-02-16T09:09:23;14.30;;;5.50;;
21539;SDS011;10931;52.164;5.518;2024-02-16T09:11:49;10.52;;;5.85;;
21539;SDS011;10931;52.164;5.518;2024-02-16T09:14:15;12.70;;;5.28;;
21539;SDS011;10931;52.164;5.518;2024-02-16T09:16:44;8.43;;;5.63;;
21539;SDS011;10931;52.164;5.518;2024-02-16T09:19:16;7.68;;;5.32;;
21539;SDS011;10931;52.164;5.518;2024-02-16T09:21:45;11.23;;;5.72;;
21539;SDS011;10931;52.164;5.518;2024-02-16T09:24:14;9.35;;;5.32;;
21539;SDS011;10931;52.164;5.518;2024-02-16T09:26:43;13.50;;;5.40;;
21539;SDS011;10931;52.164;5.518;2024-02-16T09:29:13;12.90;;;5.95;;
21539;SDS011;10931;52.164;5.518;2024-02-16T09:31:40;15.38;;;6.95;;
21539;SDS011;10931;52.164;5.518;2024-02-16T09:34:06;11.45;;;5.80;;
21539;SDS011;10931;52.164;5.518;2024-02-16T09:36:32;13.00;;;6.32;;
21539;SDS011;10931;52.164;5.518;2024-02-16T09:39:00;19.05;;;6.32;;
21539;SDS011;10931;52.164;5.518;2024-02-16T09:41:29;12.70;;;6.60;;
21539;SDS011;10931;52.164;5.518;2024-02-16T09:43:58;14.18;;;6.35;;
21539;SDS011;10931;52.164;5.518;2024-02-16T09:46:25;12.65;;;6.22;;
21539;SDS011;10931;52.164;5.518;2024-02-16T09:48:53;10.85;;;6.60;;
21539;SDS011;10931;52.164;5.518;2024-02-16T09:51:36;15.10;;;7.22;;
21539;SDS011;10931;52.164;5.518;2024-02-16T09:54:17;11.73;;;7.40;;
21539;SDS011;10931;52.164;5.518;2024-02-16T09:56:43;15.95;;;7.13;;
21539;SDS011;10931;52.164;5.518;2024-02-16T09:59:11;14.43;;;7.00;;
21539;SDS011;10931;52.164;5.518;2024-02-16T10:01:40;12.80;;;7.10;;
21539;SDS011;10931;52.164;5.518;2024-02-16T10:04:19;19.55;;;7.35;;
21539;SDS011;10931;52.164;5.518;2024-02-16T10:07:14;15.52;;;6.93;;
21539;SDS011;10931;52.164;5.518;2024-02-16T10:09:43;12.13;;;6.82;;
21539;SDS011;10931;52.164;5.518;2024-02-16T10:12:17;12.40;;;7.07;;
21539;SDS011;10931;52.164;5.518;2024-02-16T10:14:53;13.57;;;7.40;;
21539;SDS011;10931;52.164;5.518;2024-02-16T10:17:35;10.45;;;6.60;;
21539;SDS011;10931;52.164;5.518;2024-02-16T10:20:10;15.18;;;7.95;;
21539;SDS011;10931;52.164;5.518;2024-02-16T10:23:06;20.70;;;7.95;;
21539;SDS011;10931;52.164;5.518;2024-02-16T10:26:04;17.60;;;7.75;;
21539;SDS011;10931;52.164;5.518;2024-02-16T10:28:41;14.90;;;7.45;;
21539;SDS011;10931;52.164;5.518;2024-02-16T10:31:11;16.08;;;7.95;;
21539;SDS011;10931;52.164;5.518;2024-02-16T10:33:40;12.30;;;7.35;;
21539;SDS011;10931;52.164;5.518;2024-02-16T10:36:08;15.90;;;7.60;;
21539;SDS011;10931;52.164;5.518;2024-02-16T10:38:37;13.13;;;7.57;;
21539;SDS011;10931;52.164;5.518;2024-02-16T10:41:05;14.52;;;8.60;;
21539;SDS011;10931;52.164;5.518;2024-02-16T10:43:35;26.95;;;7.90;;
21539;SDS011;10931;52.164;5.518;2024-02-16T10:46:01;18.52;;;8.45;;
21539;SDS011;10931;52.164;5.518;2024-02-16T10:48:28;15.65;;;8.07;;
21539;SDS011;10931;52.164;5.518;2024-02-16T10:50:57;17.90;;;8.65;;
21539;SDS011;10931;52.164;5.518;2024-02-16T10:53:24;16.95;;;9.10;;
21539;SDS011;10931;52.164;5.518;2024-02-16T10:55:58;15.00;;;9.10;;
21539;SDS011;10931;52.164;5.518;2024-02-16T10:58:26;16.13;;;9.98;;
21539;SDS011;10931;52.164;5.518;2024-02-16T11:01:07;16.85;;;9.27;;
21539;SDS011;10931;52.164;5.518;2024-02-16T11:03:37;15.15;;;9.00;;
21539;SDS011;10931;52.164;5.518;2024-02-16T11:06:25;19.02;;;10.35;;
21539;SDS011;10931;52.164;5.518;2024-02-16T11:08:50;17.70;;;9.52;;
21539;SDS011;10931;52.164;5.518;2024-02-16T11:11:23;15.32;;;10.30;;
21539;SDS011;10931;52.164;5.518;2024-02-16T11:13:53;14.80;;;10.38;;
21539;SDS011;10931;52.164;5.518;2024-02-16T11:16:31;20.27;;;10.73;;
21539;SDS011;10931;52.164;5.518;2024-02-16T11:19:07;15.88;;;10.80;;
21539;SDS011;10931;52.164;5.518;2024-02-16T11:21:38;18.88;;;11.52;;
21539;SDS011;10931;52.164;5.518;2024-02-16T11:24:07;19.60;;;11.32;;
21539;SDS011;10931;52.164;5.518;2024-02-16T11:30:03;16.33;;;11.75;;
21539;SDS011;10931;52.164;5.518;2024-02-16T11:32:52;21.25;;;11.88;;
21539;SDS011;10931;52.164;5.518;2024-02-16T11:35:36;20.15;;;11.75;;
21539;SDS011;10931;52.164;5.518;2024-02-16T11:38:03;16.33;;;11.27;;
21539;SDS011;10931;52.164;5.518;2024-02-16T11:43:58;16.13;;;10.82;;
21539;SDS011;10931;52.164;5.518;2024-02-16T11:46:29;15.38;;;10.68;;
21539;SDS011;10931;52.164;5.518;2024-02-16T11:49:09;20.48;;;11.57;;
21539;SDS011;10931;52.164;5.518;2024-02-16T11:51:40;14.38;;;9.85;;
21539;SDS011;10931;52.164;5.518;2024-02-16T11:54:15;16.73;;;11.02;;
21539;SDS011;10931;52.164;5.518;2024-02-16T11:56:44;19.60;;;11.30;;
21539;SDS011;10931;52.164;5.518;2024-02-16T11:59:14;13.65;;;10.10;;
21539;SDS011;10931;52.164;5.518;2024-02-16T12:01:59;17.70;;;10.35;;
21539;SDS011;10931;52.164;5.518;2024-02-16T12:04:28;16.30;;;11.07;;
21539;SDS011;10931;52.164;5.518;2024-02-16T12:07:01;17.42;;;10.93;;
21539;SDS011;10931;52.164;5.518;2024-02-16T12:09:54;19.25;;;12.13;;
21539;SDS011;10931;52.164;5.518;2024-02-16T12:12:26;21.20;;;11.70;;
21539;SDS011;10931;52.164;5.518;2024-02-16T12:15:09;21.33;;;11.68;;
21539;SDS011;10931;52.164;5.518;2024-02-16T12:17:57;18.70;;;12.45;;
21539;SDS011;10931;52.164;5.518;2024-02-16T12:20:30;17.27;;;11.43;;
21539;SDS011;10931;52.164;5.518;2024-02-16T12:22:58;20.73;;;11.73;;
21539;SDS011;10931;52.164;5.518;2024-02-16T12:25:27;17.17;;;11.35;;
21539;SDS011;10931;52.164;5.518;2024-02-16T12:27:53;19.20;;;11.68;;
21539;SDS011;10931;52.164;5.518;2024-02-16T12:30:24;22.13;;;12.63;;
21539;SDS011;10931;52.164;5.518;2024-02-16T12:32:50;19.67;;;12.07;;
21539;SDS011;10931;52.164;5.518;2024-02-16T12:35:19;19.17;;;11.43;;
21539;SDS011;10931;52.164;5.518;2024-02-16T12:37:45;21.63;;;11.48;;
21539;SDS011;10931;52.164;5.518;2024-02-16T12:40:13;19.63;;;11.60;;
21539;SDS011;10931;52.164;5.518;2024-02-16T12:42:39;18.60;;;9.38;;
21539;SDS011;10931;52.164;5.518;2024-02-16T12:45:08;12.18;;;8.30;;
21539;SDS011;10931;52.164;5.518;2024-02-16T12:47:48;11.18;;;6.85;;
21539;SDS011;10931;52.164;5.518;2024-02-16T12:50:20;13.52;;;7.22;;
21539;SDS011;10931;52.164;5.518;2024-02-16T12:52:48;9.38;;;5.35;;
21539;SDS011;10931;52.164;5.518;2024-02-16T12:55:17;7.55;;;5.00;;
21539;SDS011;10931;52.164;5.518;2024-02-16T12:57:48;8.45;;;5.28;;
21539;SDS011;10931;52.164;5.518;2024-02-16T13:00:16;7.13;;;4.65;;
21539;SDS011;10931;52.164;5.518;2024-02-16T13:02:50;6.68;;;4.68;;
21539;SDS011;10931;52.164;5.518;2024-02-16T13:05:31;7.55;;;4.80;;
21539;SDS011;10931;52.164;5.518;2024-02-16T13:08:00;6.22;;;4.75;;
21539;SDS011;10931;52.164;5.518;2024-02-16T13:10:31;7.82;;;5.35;;
21539;SDS011;10931;52.164;5.518;2024-02-16T13:13:17;5.60;;;4.60;;
21539;SDS011;10931;52.164;5.518;2024-02-16T13:15:48;7.78;;;5.35;;
21539;SDS011;10931;52.164;5.518;2024-02-16T13:18:29;8.20;;;5.95;;
21539;SDS011;10931;52.164;5.518;2024-02-16T13:21:09;8.10;;;5.38;;
21539;SDS011;10931;52.164;5.518;2024-02-16T13:23:37;5.72;;;5.07;;
21539;SDS011;10931;52.164;5.518;2024-02-16T13:26:06;7.75;;;5.25;;
21539;SDS011;10931;52.164;5.518;2024-02-16T13:28:32;7.88;;;5.20;;
21539;SDS011;10931;52.164;5.518;2024-02-16T13:31:04;7.82;;;5.53;;
21539;SDS011;10931;52.164;5.518;2024-02-16T13:33:36;8.07;;;5.00;;
21539;SDS011;10931;52.164;5.518;2024-02-16T13:36:10;14.40;;;4.70;;
21539;SDS011;10931;52.164;5.518;2024-02-16T13:38:42;6.22;;;4.60;;
21539;SDS011;10931;52.164;5.518;2024-02-16T13:43:46;7.13;;;4.55;;
21539;SDS011;10931;52.164;5.518;2024-02-16T13:46:33;6.75;;;4.80;;
21539;SDS011;10931;52.164;5.518;2024-02-16T13:49:06;9.82;;;6.47;;
21539;SDS011;10931;52.164;5.518;2024-02-16T13:51:52;18.90;;;12.43;;
21539;SDS011;10931;52.164;5.518;2024-02-16T13:54:39;9.85;;;6.68;;
21539;SDS011;10931;52.164;5.518;2024-02-16T13:57:07;8.93;;;6.35;;
21539;SDS011;10931;52.164;5.518;2024-02-16T13:59:33;6.43;;;4.68;;
21539;SDS011;10931;52.164;5.518;2024-02-16T14:02:01;7.78;;;4.93;;
21539;SDS011;10931;52.164;5.518;2024-02-16T14:04:27;5.63;;;4.90;;
21539;SDS011;10931;52.164;5.518;2024-02-16T14:07:04;7.25;;;4.20;;
21539;SDS011;10931;52.164;5.518;2024-02-16T14:09:38;5.05;;;4.28;;
21539;SDS011;10931;52.164;5.518;2024-02-16T14:12:08;5.15;;;4.20;;
21539;SDS011;10931;52.164;5.518;2024-02-16T14:14:39;10.50;;;6.40;;
21539;SDS011;10931;52.164;5.518;2024-02-16T14:17:18;7.95;;;4.90;;
21539;SDS011;10931;52.164;5.518;2024-02-16T14:19:54;5.90;;;3.95;;
21539;SDS011;10931;52.164;5.518;2024-02-16T14:22:31;6.78;;;4.78;;
21539;SDS011;10931;52.164;5.518;2024-02-16T14:24:57;7.03;;;4.38;;
21539;SDS011;10931;52.164;5.518;2024-02-16T14:27:28;7.55;;;4.03;;
21539;SDS011;10931;52.164;5.518;2024-02-16T14:30:04;11.60;;;4.85;;
21539;SDS011;10931;52.164;5.518;2024-02-16T14:32:35;8.88;;;4.22;;
21539;SDS011;10931;52.164;5.518;2024-02-16T14:35:01;4.78;;;3.97;;
21539;SDS011;10931;52.164;5.518;2024-02-16T14:37:48;8.10;;;4.25;;
21539;SDS011;10931;52.164;5.518;2024-02-16T14:40:23;10.77;;;7.65;;
21539;SDS011;10931;52.164;5.518;2024-02-16T14:46:05;12.02;;;5.78;;
21539;SDS011;10931;52.164;5.518;2024-02-16T14:48:43;13.70;;;6.80;;
21539;SDS011;10931;52.164;5.518;2024-02-16T14:51:34;9.45;;;5.53;;
21539;SDS011;10931;52.164;5.518;2024-02-16T14:54:16;10.13;;;5.60;;
21539;SDS011;10931;52.164;5.518;2024-02-16T14:56:50;10.07;;;6.70;;
21539;SDS011;10931;52.164;5.518;2024-02-16T14:59:21;12.90;;;7.15;;
21539;SDS011;10931;52.164;5.518;2024-02-16T15:01:47;8.52;;;6.43;;
21539;SDS011;10931;52.164;5.518;2024-02-16T15:04:16;9.48;;;6.93;;
21539;SDS011;10931;52.164;5.518;2024-02-16T15:09:44;9.45;;;5.97;;
21539;SDS011;10931;52.164;5.518;2024-02-16T15:12:18;7.57;;;5.78;;
21539;SDS011;10931;52.164;5.518;2024-02-16T15:15:04;11.10;;;6.82;;
21539;SDS011;10931;52.164;5.518;2024-02-16T15:18:07;10.00;;;6.20;;
21539;SDS011;10931;52.164;5.518;2024-02-16T15:20:38;9.48;;;5.90;;
21539;SDS011;10931;52.164;5.518;2024-02-16T15:23:22;9.70;;;6.82;;
21539;SDS011;10931;52.164;5.518;2024-02-16T15:25:55;7.32;;;6.07;;
21539;SDS011;10931;52.164;5.518;2024-02-16T15:28:31;7.25;;;6.15;;
21539;SDS011;10931;52.164;5.518;2024-02-16T15:31:00;6.95;;;6.03;;
21539;SDS011;10931;52.164;5.518;2024-02-16T15:33:48;6.47;;;5.28;;
21539;SDS011;10931;52.164;5.518;2024-02-16T15:36:19;6.10;;;5.50;;